sensor_id;sensor_type;location;lat;lon;timestamp;temperature;humidity
69082;DHT22;69029;51.986;5.760;2023-04-24T00:01:47;10.40;99.90
69082;DHT22;69029;51.986;5.760;2023-04-24T00:04:13;10.30;99.90
69082;DHT22;69029;51.986;5.760;2023-04-24T00:06:39;10.40;99.90
69082;DHT22;69029;51.986;5.760;2023-04-24T00:09:08;10.40;99.90
69082;DHT22;69029;51.986;5.760;2023-04-24T00:11:35;10.40;99.90
69082;DHT22;69029;51.986;5.760;2023-04-24T00:14:01;10.40;99.90
69082;DHT22;69029;51.986;5.760;2023-04-24T00:16:27;10.40;99.90
69082;DHT22;69029;51.986;5.760;2023-04-24T00:18:53;10.30;99.90
69082;DHT22;69029;51.986;5.760;2023-04-24T00:21:19;10.40;99.90
69082;DHT22;69029;51.986;5.760;2023-04-24T00:23:44;10.40;99.90
69082;DHT22;69029;51.986;5.760;2023-04-24T00:26:10;10.40;99.90
69082;DHT22;69029;51.986;5.760;2023-04-24T00:28:36;10.40;99.90
69082;DHT22;69029;51.986;5.760;2023-04-24T00:31:01;10.40;99.90
69082;DHT22;69029;51.986;5.760;2023-04-24T00:33:27;10.40;99.90
69082;DHT22;69029;51.986;5.760;2023-04-24T00:35:52;10.40;99.90
69082;DHT22;69029;51.986;5.760;2023-04-24T00:38:18;10.50;99.90
69082;DHT22;69029;51.986;5.760;2023-04-24T00:40:44;10.40;99.90
69082;DHT22;69029;51.986;5.760;2023-04-24T00:43:10;10.40;99.90
69082;DHT22;69029;51.986;5.760;2023-04-24T00:45:36;10.40;99.90
69082;DHT22;69029;51.986;5.760;2023-04-24T00:48:02;10.50;99.90
69082;DHT22;69029;51.986;5.760;2023-04-24T00:50:28;10.40;99.90
69082;DHT22;69029;51.986;5.760;2023-04-24T00:52:54;10.40;99.90
69082;DHT22;69029;51.986;5.760;2023-04-24T00:55:20;10.40;99.90
69082;DHT22;69029;51.986;5.760;2023-04-24T00:57:46;10.40;99.90
69082;DHT22;69029;51.986;5.760;2023-04-24T01:00:12;10.40;99.90
69082;DHT22;69029;51.986;5.760;2023-04-24T01:02:43;10.40;99.90
69082;DHT22;69029;51.986;5.760;2023-04-24T01:05:14;10.40;99.90
69082;DHT22;69029;51.986;5.760;2023-04-24T01:07:45;10.40;99.90
69082;DHT22;69029;51.986;5.760;2023-04-24T01:10:11;10.40;99.90
69082;DHT22;69029;51.986;5.760;2023-04-24T01:12:38;10.40;99.90
69082;DHT22;69029;51.986;5.760;2023-04-24T01:15:04;10.40;99.90
69082;DHT22;69029;51.986;5.760;2023-04-24T01:17:31;10.30;99.90
69082;DHT22;69029;51.986;5.760;2023-04-24T01:19:56;10.30;99.90
69082;DHT22;69029;51.986;5.760;2023-04-24T01:22:22;10.20;99.90
69082;DHT22;69029;51.986;5.760;2023-04-24T01:24:48;10.30;99.90
69082;DHT22;69029;51.986;5.760;2023-04-24T01:27:14;10.20;99.90
69082;DHT22;69029;51.986;5.760;2023-04-24T01:29:41;10.10;99.90
69082;DHT22;69029;51.986;5.760;2023-04-24T01:32:06;10.20;99.90
69082;DHT22;69029;51.986;5.760;2023-04-24T01:34:32;10.10;99.90
69082;DHT22;69029;51.986;5.760;2023-04-24T01:36:58;10.10;99.90
69082;DHT22;69029;51.986;5.760;2023-04-24T01:39:24;10.10;99.90
69082;DHT22;69029;51.986;5.760;2023-04-24T01:41:51;10.10;99.90
69082;DHT22;69029;51.986;5.760;2023-04-24T01:44:18;10.10;99.90
69082;DHT22;69029;51.986;5.760;2023-04-24T01:46:43;10.10;99.90
69082;DHT22;69029;51.986;5.760;2023-04-24T01:49:10;10.20;99.90
69082;DHT22;69029;51.986;5.760;2023-04-24T01:51:35;10.20;99.90
69082;DHT22;69029;51.986;5.760;2023-04-24T01:54:01;10.10;99.90
69082;DHT22;69029;51.986;5.760;2023-04-24T01:56:29;10.20;99.90
69082;DHT22;69029;51.986;5.760;2023-04-24T01:58:55;10.20;99.90
69082;DHT22;69029;51.986;5.760;2023-04-24T02:01:23;10.10;99.90
69082;DHT22;69029;51.986;5.760;2023-04-24T02:03:49;10.10;99.90
69082;DHT22;69029;51.986;5.760;2023-04-24T02:06:15;10.10;99.90
69082;DHT22;69029;51.986;5.760;2023-04-24T02:08:41;10.10;99.90
69082;DHT22;69029;51.986;5.760;2023-04-24T02:11:08;10.00;99.90
69082;DHT22;69029;51.986;5.760;2023-04-24T02:13:34;10.00;99.90
69082;DHT22;69029;51.986;5.760;2023-04-24T02:15:59;10.00;99.90
69082;DHT22;69029;51.986;5.760;2023-04-24T02:18:25;10.10;99.90
69082;DHT22;69029;51.986;5.760;2023-04-24T02:20:50;10.10;99.90
69082;DHT22;69029;51.986;5.760;2023-04-24T02:23:16;10.00;99.90
69082;DHT22;69029;51.986;5.760;2023-04-24T02:25:42;10.00;99.90
69082;DHT22;69029;51.986;5.760;2023-04-24T02:28:07;10.10;99.90
69082;DHT22;69029;51.986;5.760;2023-04-24T02:30:33;10.00;99.90
69082;DHT22;69029;51.986;5.760;2023-04-24T02:32:58;10.00;99.90
69082;DHT22;69029;51.986;5.760;2023-04-24T02:35:24;10.10;99.90
69082;DHT22;69029;51.986;5.760;2023-04-24T02:37:49;9.90;99.90
69082;DHT22;69029;51.986;5.760;2023-04-24T02:40:15;10.00;99.90
69082;DHT22;69029;51.986;5.760;2023-04-24T02:42:40;10.00;99.90
69082;DHT22;69029;51.986;5.760;2023-04-24T02:45:06;10.00;99.90
69082;DHT22;69029;51.986;5.760;2023-04-24T02:47:32;10.10;99.90
69082;DHT22;69029;51.986;5.760;2023-04-24T02:49:58;10.10;99.90
69082;DHT22;69029;51.986;5.760;2023-04-24T02:52:23;10.10;99.90
69082;DHT22;69029;51.986;5.760;2023-04-24T02:54:49;10.00;99.90
69082;DHT22;69029;51.986;5.760;2023-04-24T02:57:14;10.00;99.90
69082;DHT22;69029;51.986;5.760;2023-04-24T02:59:40;10.00;99.90
69082;DHT22;69029;51.986;5.760;2023-04-24T03:02:06;10.00;99.90
69082;DHT22;69029;51.986;5.760;2023-04-24T03:04:31;10.00;99.90
69082;DHT22;69029;51.986;5.760;2023-04-24T03:06:57;9.90;99.90
69082;DHT22;69029;51.986;5.760;2023-04-24T03:09:24;10.00;99.90
69082;DHT22;69029;51.986;5.760;2023-04-24T03:11:49;9.90;99.90
69082;DHT22;69029;51.986;5.760;2023-04-24T03:14:16;9.90;99.90
69082;DHT22;69029;51.986;5.760;2023-04-24T03:16:41;9.90;99.90
69082;DHT22;69029;51.986;5.760;2023-04-24T03:19:07;9.90;99.90
69082;DHT22;69029;51.986;5.760;2023-04-24T03:21:33;9.90;99.90
69082;DHT22;69029;51.986;5.760;2023-04-24T03:23:58;9.90;99.90
69082;DHT22;69029;51.986;5.760;2023-04-24T03:26:24;9.90;99.90
69082;DHT22;69029;51.986;5.760;2023-04-24T03:28:50;9.90;99.90
69082;DHT22;69029;51.986;5.760;2023-04-24T03:31:15;9.90;99.90
69082;DHT22;69029;51.986;5.760;2023-04-24T03:33:42;9.90;99.90
69082;DHT22;69029;51.986;5.760;2023-04-24T03:36:07;9.80;99.90
69082;DHT22;69029;51.986;5.760;2023-04-24T03:38:33;9.80;99.90
69082;DHT22;69029;51.986;5.760;2023-04-24T03:40:58;9.90;99.90
69082;DHT22;69029;51.986;5.760;2023-04-24T03:43:24;9.90;99.90
69082;DHT22;69029;51.986;5.760;2023-04-24T03:45:50;9.90;99.90
69082;DHT22;69029;51.986;5.760;2023-04-24T03:48:16;9.90;99.90
69082;DHT22;69029;51.986;5.760;2023-04-24T03:50:41;9.90;99.90
69082;DHT22;69029;51.986;5.760;2023-04-24T03:53:07;9.90;99.90
69082;DHT22;69029;51.986;5.760;2023-04-24T03:55:33;9.90;99.90
69082;DHT22;69029;51.986;5.760;2023-04-24T03:57:59;9.90;99.90
69082;DHT22;69029;51.986;5.760;2023-04-24T04:00:24;9.90;99.90
69082;DHT22;69029;51.986;5.760;2023-04-24T04:02:51;9.90;99.90
69082;DHT22;69029;51.986;5.760;2023-04-24T04:05:17;9.90;99.90
69082;DHT22;69029;51.986;5.760;2023-04-24T04:07:42;9.90;99.90
69082;DHT22;69029;51.986;5.760;2023-04-24T04:10:08;9.90;99.90
69082;DHT22;69029;51.986;5.760;2023-04-24T04:12:33;9.90;99.90
69082;DHT22;69029;51.986;5.760;2023-04-24T04:14:59;10.00;99.90
69082;DHT22;69029;51.986;5.760;2023-04-24T04:17:25;10.00;99.90
69082;DHT22;69029;51.986;5.760;2023-04-24T04:19:51;9.90;99.90
69082;DHT22;69029;51.986;5.760;2023-04-24T04:22:16;9.90;99.90
69082;DHT22;69029;51.986;5.760;2023-04-24T04:24:42;9.90;99.90
69082;DHT22;69029;51.986;5.760;2023-04-24T04:27:08;9.90;99.90
69082;DHT22;69029;51.986;5.760;2023-04-24T04:29:34;9.90;99.90
69082;DHT22;69029;51.986;5.760;2023-04-24T04:32:01;9.90;99.90
69082;DHT22;69029;51.986;5.760;2023-04-24T04:34:27;9.90;99.90
69082;DHT22;69029;51.986;5.760;2023-04-24T04:36:53;9.90;99.90
69082;DHT22;69029;51.986;5.760;2023-04-24T04:39:18;9.90;99.90
69082;DHT22;69029;51.986;5.760;2023-04-24T04:41:45;9.80;99.90
69082;DHT22;69029;51.986;5.760;2023-04-24T04:44:14;9.80;99.90
69082;DHT22;69029;51.986;5.760;2023-04-24T04:46:40;9.70;99.90
69082;DHT22;69029;51.986;5.760;2023-04-24T04:49:07;9.80;99.90
69082;DHT22;69029;51.986;5.760;2023-04-24T04:51:34;9.80;99.90
69082;DHT22;69029;51.986;5.760;2023-04-24T04:54:00;9.70;99.90
69082;DHT22;69029;51.986;5.760;2023-04-24T04:56:25;9.60;99.90
69082;DHT22;69029;51.986;5.760;2023-04-24T04:58:51;9.60;99.90
69082;DHT22;69029;51.986;5.760;2023-04-24T05:01:17;9.60;99.90
69082;DHT22;69029;51.986;5.760;2023-04-24T05:03:42;9.60;99.90
69082;DHT22;69029;51.986;5.760;2023-04-24T05:06:08;9.60;99.90
69082;DHT22;69029;51.986;5.760;2023-04-24T05:08:34;9.60;99.90
69082;DHT22;69029;51.986;5.760;2023-04-24T05:11:00;9.60;99.90
69082;DHT22;69029;51.986;5.760;2023-04-24T05:13:26;9.60;99.90
69082;DHT22;69029;51.986;5.760;2023-04-24T05:15:51;9.60;99.90
69082;DHT22;69029;51.986;5.760;2023-04-24T05:18:17;9.60;99.90
69082;DHT22;69029;51.986;5.760;2023-04-24T05:20:42;9.50;99.90
69082;DHT22;69029;51.986;5.760;2023-04-24T05:23:09;9.50;99.90
69082;DHT22;69029;51.986;5.760;2023-04-24T05:25:35;9.50;99.90
69082;DHT22;69029;51.986;5.760;2023-04-24T05:28:01;9.50;99.90
69082;DHT22;69029;51.986;5.760;2023-04-24T05:30:27;9.60;99.90
69082;DHT22;69029;51.986;5.760;2023-04-24T05:32:53;9.60;99.90
69082;DHT22;69029;51.986;5.760;2023-04-24T05:35:18;9.60;99.90
69082;DHT22;69029;51.986;5.760;2023-04-24T05:37:44;9.60;99.90
69082;DHT22;69029;51.986;5.760;2023-04-24T05:40:10;9.60;99.90
69082;DHT22;69029;51.986;5.760;2023-04-24T05:42:36;9.60;99.90
69082;DHT22;69029;51.986;5.760;2023-04-24T05:45:02;9.60;99.90
69082;DHT22;69029;51.986;5.760;2023-04-24T05:47:30;9.70;99.90
69082;DHT22;69029;51.986;5.760;2023-04-24T05:49:56;9.70;99.90
69082;DHT22;69029;51.986;5.760;2023-04-24T05:52:22;9.60;99.90
69082;DHT22;69029;51.986;5.760;2023-04-24T05:54:47;9.70;99.90
69082;DHT22;69029;51.986;5.760;2023-04-24T05:57:13;9.80;99.90
69082;DHT22;69029;51.986;5.760;2023-04-24T05:59:40;9.80;99.90
69082;DHT22;69029;51.986;5.760;2023-04-24T06:02:06;9.80;99.90
69082;DHT22;69029;51.986;5.760;2023-04-24T06:04:32;9.80;99.90
69082;DHT22;69029;51.986;5.760;2023-04-24T06:06:57;9.90;99.90
69082;DHT22;69029;51.986;5.760;2023-04-24T06:09:23;10.00;99.90
69082;DHT22;69029;51.986;5.760;2023-04-24T06:11:49;10.10;99.90
69082;DHT22;69029;51.986;5.760;2023-04-24T06:14:15;10.00;99.90
69082;DHT22;69029;51.986;5.760;2023-04-24T06:16:42;10.10;99.90
69082;DHT22;69029;51.986;5.760;2023-04-24T06:19:08;10.10;99.90
69082;DHT22;69029;51.986;5.760;2023-04-24T06:21:33;10.10;99.90
69082;DHT22;69029;51.986;5.760;2023-04-24T06:23:59;10.20;99.90
69082;DHT22;69029;51.986;5.760;2023-04-24T06:26:25;10.20;99.90
69082;DHT22;69029;51.986;5.760;2023-04-24T06:28:52;10.30;99.90
69082;DHT22;69029;51.986;5.760;2023-04-24T06:31:19;10.40;99.90
69082;DHT22;69029;51.986;5.760;2023-04-24T06:33:45;10.30;99.90
69082;DHT22;69029;51.986;5.760;2023-04-24T06:36:12;10.40;99.90
69082;DHT22;69029;51.986;5.760;2023-04-24T06:38:37;10.50;99.90
69082;DHT22;69029;51.986;5.760;2023-04-24T06:41:03;10.40;99.90
69082;DHT22;69029;51.986;5.760;2023-04-24T06:43:30;10.40;99.90
69082;DHT22;69029;51.986;5.760;2023-04-24T06:45:57;10.30;99.90
69082;DHT22;69029;51.986;5.760;2023-04-24T06:48:24;10.30;99.90
69082;DHT22;69029;51.986;5.760;2023-04-24T06:50:49;10.30;99.90
69082;DHT22;69029;51.986;5.760;2023-04-24T06:53:15;10.20;99.90
69082;DHT22;69029;51.986;5.760;2023-04-24T06:55:41;10.20;99.90
69082;DHT22;69029;51.986;5.760;2023-04-24T06:58:07;10.30;99.90
69082;DHT22;69029;51.986;5.760;2023-04-24T07:00:33;10.20;99.90
69082;DHT22;69029;51.986;5.760;2023-04-24T07:02:58;10.20;99.90
69082;DHT22;69029;51.986;5.760;2023-04-24T07:05:24;10.20;99.90
69082;DHT22;69029;51.986;5.760;2023-04-24T07:07:50;10.10;99.90
69082;DHT22;69029;51.986;5.760;2023-04-24T07:10:16;10.10;99.90
69082;DHT22;69029;51.986;5.760;2023-04-24T07:12:42;10.00;99.90
69082;DHT22;69029;51.986;5.760;2023-04-24T07:15:08;10.00;99.90
69082;DHT22;69029;51.986;5.760;2023-04-24T07:17:34;9.90;99.90
69082;DHT22;69029;51.986;5.760;2023-04-24T07:20:00;9.90;99.90
69082;DHT22;69029;51.986;5.760;2023-04-24T07:22:26;9.80;99.90
69082;DHT22;69029;51.986;5.760;2023-04-24T07:24:52;9.80;99.90
69082;DHT22;69029;51.986;5.760;2023-04-24T07:27:17;9.80;99.90
69082;DHT22;69029;51.986;5.760;2023-04-24T07:29:43;9.80;99.90
69082;DHT22;69029;51.986;5.760;2023-04-24T07:32:08;9.80;99.90
69082;DHT22;69029;51.986;5.760;2023-04-24T07:34:34;9.80;99.90
69082;DHT22;69029;51.986;5.760;2023-04-24T07:37:00;9.90;99.90
69082;DHT22;69029;51.986;5.760;2023-04-24T07:39:27;9.90;99.90
69082;DHT22;69029;51.986;5.760;2023-04-24T07:41:53;9.90;99.90
69082;DHT22;69029;51.986;5.760;2023-04-24T07:44:18;9.90;99.90
69082;DHT22;69029;51.986;5.760;2023-04-24T07:46:44;9.90;99.90
69082;DHT22;69029;51.986;5.760;2023-04-24T07:49:10;9.90;99.90
69082;DHT22;69029;51.986;5.760;2023-04-24T07:51:35;9.90;99.90
69082;DHT22;69029;51.986;5.760;2023-04-24T07:54:04;9.80;99.90
69082;DHT22;69029;51.986;5.760;2023-04-24T07:56:31;9.80;99.90
69082;DHT22;69029;51.986;5.760;2023-04-24T07:58:57;9.70;99.90
69082;DHT22;69029;51.986;5.760;2023-04-24T08:01:22;9.80;99.90
69082;DHT22;69029;51.986;5.760;2023-04-24T08:03:48;9.80;99.90
69082;DHT22;69029;51.986;5.760;2023-04-24T08:06:14;9.70;99.90
69082;DHT22;69029;51.986;5.760;2023-04-24T08:08:39;9.70;99.90
69082;DHT22;69029;51.986;5.760;2023-04-24T08:11:05;9.60;99.90
69082;DHT22;69029;51.986;5.760;2023-04-24T08:13:31;9.60;99.90
69082;DHT22;69029;51.986;5.760;2023-04-24T08:15:57;9.60;99.90
69082;DHT22;69029;51.986;5.760;2023-04-24T08:18:22;9.50;99.90
69082;DHT22;69029;51.986;5.760;2023-04-24T08:20:48;9.50;99.90
69082;DHT22;69029;51.986;5.760;2023-04-24T08:23:14;9.50;99.90
69082;DHT22;69029;51.986;5.760;2023-04-24T08:25:39;9.50;99.90
69082;DHT22;69029;51.986;5.760;2023-04-24T08:28:06;9.50;99.90
69082;DHT22;69029;51.986;5.760;2023-04-24T08:30:34;9.50;99.90
69082;DHT22;69029;51.986;5.760;2023-04-24T08:32:59;9.50;99.90
69082;DHT22;69029;51.986;5.760;2023-04-24T08:35:25;9.60;99.90
69082;DHT22;69029;51.986;5.760;2023-04-24T08:37:52;9.50;99.90
69082;DHT22;69029;51.986;5.760;2023-04-24T08:40:23;9.50;99.90
69082;DHT22;69029;51.986;5.760;2023-04-24T08:42:54;9.50;99.90
69082;DHT22;69029;51.986;5.760;2023-04-24T08:45:20;9.40;99.90
69082;DHT22;69029;51.986;5.760;2023-04-24T08:47:46;9.40;99.90
69082;DHT22;69029;51.986;5.760;2023-04-24T08:50:13;9.30;99.90
69082;DHT22;69029;51.986;5.760;2023-04-24T08:52:38;9.40;99.90
69082;DHT22;69029;51.986;5.760;2023-04-24T08:55:05;9.50;99.90
69082;DHT22;69029;51.986;5.760;2023-04-24T08:57:31;9.40;99.90
69082;DHT22;69029;51.986;5.760;2023-04-24T08:59:58;9.40;99.90
69082;DHT22;69029;51.986;5.760;2023-04-24T09:02:24;9.40;99.90
69082;DHT22;69029;51.986;5.760;2023-04-24T09:04:51;9.50;99.90
69082;DHT22;69029;51.986;5.760;2023-04-24T09:07:19;9.70;99.90
69082;DHT22;69029;51.986;5.760;2023-04-24T09:09:45;9.70;99.90
69082;DHT22;69029;51.986;5.760;2023-04-24T09:12:11;9.70;99.90
69082;DHT22;69029;51.986;5.760;2023-04-24T09:14:38;9.70;99.90
69082;DHT22;69029;51.986;5.760;2023-04-24T09:17:10;9.70;99.90
69082;DHT22;69029;51.986;5.760;2023-04-24T09:19:36;9.70;99.90
69082;DHT22;69029;51.986;5.760;2023-04-24T09:22:05;9.70;99.90
69082;DHT22;69029;51.986;5.760;2023-04-24T09:24:31;9.80;99.90
69082;DHT22;69029;51.986;5.760;2023-04-24T09:26:58;9.80;99.90
69082;DHT22;69029;51.986;5.760;2023-04-24T09:29:24;9.90;99.90
69082;DHT22;69029;51.986;5.760;2023-04-24T09:31:50;9.90;99.90
69082;DHT22;69029;51.986;5.760;2023-04-24T09:34:21;9.90;99.90
69082;DHT22;69029;51.986;5.760;2023-04-24T09:36:48;9.90;99.90
69082;DHT22;69029;51.986;5.760;2023-04-24T09:39:15;10.00;99.90
69082;DHT22;69029;51.986;5.760;2023-04-24T09:41:49;10.20;99.90
69082;DHT22;69029;51.986;5.760;2023-04-24T09:44:19;10.30;99.90
69082;DHT22;69029;51.986;5.760;2023-04-24T09:46:53;10.40;99.90
69082;DHT22;69029;51.986;5.760;2023-04-24T09:49:23;10.40;99.90
69082;DHT22;69029;51.986;5.760;2023-04-24T09:51:50;10.30;99.90
69082;DHT22;69029;51.986;5.760;2023-04-24T09:54:22;10.30;99.90
69082;DHT22;69029;51.986;5.760;2023-04-24T09:56:49;10.30;99.90
69082;DHT22;69029;51.986;5.760;2023-04-24T09:59:17;10.20;99.90
69082;DHT22;69029;51.986;5.760;2023-04-24T10:01:43;10.30;99.90
69082;DHT22;69029;51.986;5.760;2023-04-24T10:04:21;10.40;99.90
69082;DHT22;69029;51.986;5.760;2023-04-24T10:06:48;10.70;99.90
69082;DHT22;69029;51.986;5.760;2023-04-24T10:09:15;10.60;99.90
69082;DHT22;69029;51.986;5.760;2023-04-24T10:11:45;10.80;99.90
69082;DHT22;69029;51.986;5.760;2023-04-24T10:14:15;10.90;99.90
69082;DHT22;69029;51.986;5.760;2023-04-24T10:16:42;11.00;99.90
69082;DHT22;69029;51.986;5.760;2023-04-24T10:19:08;11.20;99.00
69082;DHT22;69029;51.986;5.760;2023-04-24T10:21:35;11.20;98.80
69082;DHT22;69029;51.986;5.760;2023-04-24T10:24:03;11.50;99.90
69082;DHT22;69029;51.986;5.760;2023-04-24T10:26:34;11.80;99.70
69082;DHT22;69029;51.986;5.760;2023-04-24T10:29:01;12.20;99.90
69082;DHT22;69029;51.986;5.760;2023-04-24T10:31:27;12.20;96.20
69082;DHT22;69029;51.986;5.760;2023-04-24T10:33:56;12.20;97.10
69082;DHT22;69029;51.986;5.760;2023-04-24T10:36:24;12.20;94.30
69082;DHT22;69029;51.986;5.760;2023-04-24T10:38:53;12.00;93.70
69082;DHT22;69029;51.986;5.760;2023-04-24T10:41:20;11.80;97.50
69082;DHT22;69029;51.986;5.760;2023-04-24T10:44:07;11.80;93.10
69082;DHT22;69029;51.986;5.760;2023-04-24T10:46:33;11.90;97.80
69082;DHT22;69029;51.986;5.760;2023-04-24T10:48:59;11.80;95.00
69082;DHT22;69029;51.986;5.760;2023-04-24T10:54:26;11.70;94.80
69082;DHT22;69029;51.986;5.760;2023-04-24T10:56:53;11.50;96.20
69082;DHT22;69029;51.986;5.760;2023-04-24T10:59:27;11.40;96.30
69082;DHT22;69029;51.986;5.760;2023-04-24T11:01:54;11.10;95.50
69082;DHT22;69029;51.986;5.760;2023-04-24T11:04:30;10.90;95.10
69082;DHT22;69029;51.986;5.760;2023-04-24T11:06:57;10.80;94.50
69082;DHT22;69029;51.986;5.760;2023-04-24T11:09:26;10.80;95.50
69082;DHT22;69029;51.986;5.760;2023-04-24T11:12:09;11.00;95.90
69082;DHT22;69029;51.986;5.760;2023-04-24T11:17:32;11.50;95.60
69082;DHT22;69029;51.986;5.760;2023-04-24T11:20:11;11.60;94.50
69082;DHT22;69029;51.986;5.760;2023-04-24T11:22:41;11.60;94.30
69082;DHT22;69029;51.986;5.760;2023-04-24T11:25:08;11.70;92.50
69082;DHT22;69029;51.986;5.760;2023-04-24T11:27:44;11.90;92.20
69082;DHT22;69029;51.986;5.760;2023-04-24T11:30:13;11.90;91.80
69082;DHT22;69029;51.986;5.760;2023-04-24T11:32:43;12.10;94.10
69082;DHT22;69029;51.986;5.760;2023-04-24T11:35:17;12.30;92.90
69082;DHT22;69029;51.986;5.760;2023-04-24T11:37:44;12.40;92.30
69082;DHT22;69029;51.986;5.760;2023-04-24T11:40:13;12.40;90.40
69082;DHT22;69029;51.986;5.760;2023-04-24T11:42:44;12.40;91.10
69082;DHT22;69029;51.986;5.760;2023-04-24T11:45:15;12.00;89.30
69082;DHT22;69029;51.986;5.760;2023-04-24T11:47:42;11.80;91.20
69082;DHT22;69029;51.986;5.760;2023-04-24T11:50:11;11.80;93.20
69082;DHT22;69029;51.986;5.760;2023-04-24T11:52:38;11.90;91.80
69082;DHT22;69029;51.986;5.760;2023-04-24T11:55:04;11.90;92.20
69082;DHT22;69029;51.986;5.760;2023-04-24T11:57:30;11.70;93.00
69082;DHT22;69029;51.986;5.760;2023-04-24T12:00:03;11.40;94.10
69082;DHT22;69029;51.986;5.760;2023-04-24T12:02:30;11.30;95.20
69082;DHT22;69029;51.986;5.760;2023-04-24T12:04:56;11.00;96.70
69082;DHT22;69029;51.986;5.760;2023-04-24T12:07:23;10.80;99.90
69082;DHT22;69029;51.986;5.760;2023-04-24T12:09:57;11.00;99.90
69082;DHT22;69029;51.986;5.760;2023-04-24T12:12:28;11.00;99.90
69082;DHT22;69029;51.986;5.760;2023-04-24T12:14:56;10.90;99.90
69082;DHT22;69029;51.986;5.760;2023-04-24T12:17:30;10.80;98.90
69082;DHT22;69029;51.986;5.760;2023-04-24T12:20:07;10.90;99.90
69082;DHT22;69029;51.986;5.760;2023-04-24T12:22:53;10.90;97.60
69082;DHT22;69029;51.986;5.760;2023-04-24T12:25:22;11.20;96.00
69082;DHT22;69029;51.986;5.760;2023-04-24T12:28:08;11.70;93.00
69082;DHT22;69029;51.986;5.760;2023-04-24T12:30:47;11.80;95.90
69082;DHT22;69029;51.986;5.760;2023-04-24T12:33:22;12.10;93.50
69082;DHT22;69029;51.986;5.760;2023-04-24T12:35:51;12.20;92.40
69082;DHT22;69029;51.986;5.760;2023-04-24T12:38:22;12.10;92.60
69082;DHT22;69029;51.986;5.760;2023-04-24T12:40:48;12.00;93.80
69082;DHT22;69029;51.986;5.760;2023-04-24T12:43:26;12.10;92.40
69082;DHT22;69029;51.986;5.760;2023-04-24T12:45:51;12.00;91.70
69082;DHT22;69029;51.986;5.760;2023-04-24T12:48:17;11.80;90.70
69082;DHT22;69029;51.986;5.760;2023-04-24T12:50:43;11.80;92.20
69082;DHT22;69029;51.986;5.760;2023-04-24T12:53:09;11.60;91.40
69082;DHT22;69029;51.986;5.760;2023-04-24T12:55:36;11.60;91.60
69082;DHT22;69029;51.986;5.760;2023-04-24T12:58:02;11.70;92.10
69082;DHT22;69029;51.986;5.760;2023-04-24T13:00:28;12.00;92.80
69082;DHT22;69029;51.986;5.760;2023-04-24T13:02:54;12.00;90.40
69082;DHT22;69029;51.986;5.760;2023-04-24T13:05:20;12.00;91.50
69082;DHT22;69029;51.986;5.760;2023-04-24T13:07:46;11.80;92.00
69082;DHT22;69029;51.986;5.760;2023-04-24T13:10:11;12.00;93.00
69082;DHT22;69029;51.986;5.760;2023-04-24T13:12:38;12.10;91.20
69082;DHT22;69029;51.986;5.760;2023-04-24T13:15:05;12.00;90.10
69082;DHT22;69029;51.986;5.760;2023-04-24T13:17:30;11.90;89.70
69082;DHT22;69029;51.986;5.760;2023-04-24T13:19:56;11.80;90.80
69082;DHT22;69029;51.986;5.760;2023-04-24T13:22:22;11.70;92.40
69082;DHT22;69029;51.986;5.760;2023-04-24T13:24:47;11.70;87.80
69082;DHT22;69029;51.986;5.760;2023-04-24T13:27:16;11.60;89.60
69082;DHT22;69029;51.986;5.760;2023-04-24T13:29:42;11.60;90.50
69082;DHT22;69029;51.986;5.760;2023-04-24T13:32:08;11.60;88.90
69082;DHT22;69029;51.986;5.760;2023-04-24T13:34:34;11.70;87.10
69082;DHT22;69029;51.986;5.760;2023-04-24T13:37:00;11.70;89.60
69082;DHT22;69029;51.986;5.760;2023-04-24T13:39:26;11.80;90.40
69082;DHT22;69029;51.986;5.760;2023-04-24T13:41:52;11.80;90.60
69082;DHT22;69029;51.986;5.760;2023-04-24T13:44:19;11.90;89.70
69082;DHT22;69029;51.986;5.760;2023-04-24T13:46:46;11.90;88.50
69082;DHT22;69029;51.986;5.760;2023-04-24T13:49:13;11.90;86.00
69082;DHT22;69029;51.986;5.760;2023-04-24T13:51:39;11.90;89.30
69082;DHT22;69029;51.986;5.760;2023-04-24T13:54:05;12.40;88.70
69082;DHT22;69029;51.986;5.760;2023-04-24T13:56:31;13.40;85.30
69082;DHT22;69029;51.986;5.760;2023-04-24T13:58:56;14.90;75.80
69082;DHT22;69029;51.986;5.760;2023-04-24T14:01:22;14.80;76.80
69082;DHT22;69029;51.986;5.760;2023-04-24T14:03:52;15.50;76.50
69082;DHT22;69029;51.986;5.760;2023-04-24T14:06:18;15.50;74.30
69082;DHT22;69029;51.986;5.760;2023-04-24T14:08:44;15.10;75.40
69082;DHT22;69029;51.986;5.760;2023-04-24T14:11:10;14.70;78.10
69082;DHT22;69029;51.986;5.760;2023-04-24T14:13:36;14.20;78.00
69082;DHT22;69029;51.986;5.760;2023-04-24T14:16:03;14.30;78.40
69082;DHT22;69029;51.986;5.760;2023-04-24T14:18:29;14.50;79.10
69082;DHT22;69029;51.986;5.760;2023-04-24T14:20:54;15.60;71.30
69082;DHT22;69029;51.986;5.760;2023-04-24T14:23:20;16.60;65.90
69082;DHT22;69029;51.986;5.760;2023-04-24T14:25:46;17.10;61.60
69082;DHT22;69029;51.986;5.760;2023-04-24T14:28:13;16.90;63.20
69082;DHT22;69029;51.986;5.760;2023-04-24T14:30:40;16.80;66.70
69082;DHT22;69029;51.986;5.760;2023-04-24T14:33:06;16.10;67.70
69082;DHT22;69029;51.986;5.760;2023-04-24T14:35:31;15.30;67.70
69082;DHT22;69029;51.986;5.760;2023-04-24T14:37:59;14.80;72.60
69082;DHT22;69029;51.986;5.760;2023-04-24T14:40:25;14.80;70.50
69082;DHT22;69029;51.986;5.760;2023-04-24T14:42:51;15.10;68.90
69082;DHT22;69029;51.986;5.760;2023-04-24T14:45:16;15.60;69.90
69082;DHT22;69029;51.986;5.760;2023-04-24T14:47:42;15.90;69.50
69082;DHT22;69029;51.986;5.760;2023-04-24T14:50:08;15.90;64.20
69082;DHT22;69029;51.986;5.760;2023-04-24T14:52:34;15.30;70.00
69082;DHT22;69029;51.986;5.760;2023-04-24T14:55:00;14.60;67.40
69082;DHT22;69029;51.986;5.760;2023-04-24T14:57:25;14.30;66.10
69082;DHT22;69029;51.986;5.760;2023-04-24T14:59:51;14.20;73.50
69082;DHT22;69029;51.986;5.760;2023-04-24T15:02:17;14.00;72.10
69082;DHT22;69029;51.986;5.760;2023-04-24T15:04:42;13.80;73.30
69082;DHT22;69029;51.986;5.760;2023-04-24T15:07:08;13.70;72.50
69082;DHT22;69029;51.986;5.760;2023-04-24T15:09:33;13.70;73.00
69082;DHT22;69029;51.986;5.760;2023-04-24T15:11:59;13.60;77.10
69082;DHT22;69029;51.986;5.760;2023-04-24T15:14:25;13.40;75.80
69082;DHT22;69029;51.986;5.760;2023-04-24T15:16:50;13.00;69.10
69082;DHT22;69029;51.986;5.760;2023-04-24T15:19:16;13.00;73.40
69082;DHT22;69029;51.986;5.760;2023-04-24T15:21:42;12.80;71.40
69082;DHT22;69029;51.986;5.760;2023-04-24T15:24:09;12.70;73.30
69082;DHT22;69029;51.986;5.760;2023-04-24T15:26:35;12.80;76.00
69082;DHT22;69029;51.986;5.760;2023-04-24T15:29:02;13.20;72.20
69082;DHT22;69029;51.986;5.760;2023-04-24T15:31:27;13.40;71.80
69082;DHT22;69029;51.986;5.760;2023-04-24T15:33:53;13.30;69.30
69082;DHT22;69029;51.986;5.760;2023-04-24T15:36:19;13.30;72.40
69082;DHT22;69029;51.986;5.760;2023-04-24T15:38:46;13.90;71.00